createdAt,value
2023-01-22T00:00:40.574Z,0.00
2023-01-22T00:01:40.600Z,0.00
2023-01-22T00:02:40.682Z,0.00
2023-01-22T00:03:40.739Z,0.00
2023-01-22T00:04:40.629Z,0.00
2023-01-22T00:05:40.643Z,0.00
2023-01-22T00:06:40.687Z,0.00
2023-01-22T00:07:40.672Z,0.00
2023-01-22T00:08:40.695Z,0.00
2023-01-22T00:09:40.748Z,0.00
2023-01-22T00:10:40.717Z,0.00
2023-01-22T00:11:40.752Z,0.00
2023-01-22T00:12:40.777Z,0.00
2023-01-22T00:13:40.800Z,0.00
2023-01-22T00:14:40.919Z,0.00
2023-01-22T00:15:40.921Z,0.00
2023-01-22T00:16:40.836Z,0.00
2023-01-22T00:17:40.867Z,0.00
2023-01-22T00:18:40.847Z,0.00
2023-01-22T00:19:40.876Z,0.00
2023-01-22T00:20:41.783Z,0.00
2023-01-22T00:21:40.917Z,0.00
2023-01-22T00:22:40.903Z,0.00
2023-01-22T00:23:40.935Z,0.00
2023-01-22T00:24:40.964Z,0.00
2023-01-22T00:25:40.977Z,0.00
2023-01-22T00:26:40.953Z,0.00
2023-01-22T00:27:40.981Z,0.00
2023-01-22T00:28:41.006Z,0.00
2023-01-22T00:29:41.077Z,0.00
2023-01-22T00:30:41.039Z,0.00
2023-01-22T00:31:41.145Z,0.00
2023-01-22T00:32:41.086Z,0.00
2023-01-22T00:33:41.113Z,0.00
2023-01-22T00:34:41.143Z,0.00
2023-01-22T00:35:41.162Z,0.00
2023-01-22T00:36:41.176Z,0.00
2023-01-22T00:37:41.196Z,0.00
2023-01-22T00:38:41.224Z,0.00
2023-01-22T00:39:41.256Z,0.00
2023-01-22T00:40:41.258Z,0.00
2023-01-22T00:41:41.266Z,0.00
2023-01-22T00:42:41.240Z,0.00
2023-01-22T00:43:41.254Z,0.00
2023-01-22T00:44:41.289Z,0.00
2023-01-22T00:45:41.309Z,0.00
2023-01-22T00:46:41.382Z,0.00
2023-01-22T00:47:41.339Z,0.00
2023-01-22T00:48:41.372Z,0.00
2023-01-22T00:49:41.356Z,0.00
2023-01-22T00:50:41.376Z,0.00
2023-01-22T00:51:41.418Z,0.00
2023-01-22T00:52:41.421Z,0.00
2023-01-22T00:53:41.477Z,0.00
2023-01-22T00:54:41.451Z,0.00
2023-01-22T00:55:41.495Z,0.00
2023-01-22T00:56:41.462Z,0.00
2023-01-22T00:57:41.515Z,0.00
2023-01-22T00:58:41.502Z,0.00
2023-01-22T00:59:41.471Z,0.00
2023-01-22T01:00:41.548Z,0.00
2023-01-22T01:01:41.534Z,0.00
2023-01-22T01:02:41.509Z,0.00
2023-01-22T01:03:41.503Z,0.00
2023-01-22T01:04:41.524Z,0.00
2023-01-22T01:05:41.550Z,0.00
2023-01-22T01:06:41.579Z,0.00
2023-01-22T01:07:41.598Z,0.00
2023-01-22T01:08:41.633Z,0.00
2023-01-22T01:09:41.664Z,0.00
2023-01-22T01:10:41.635Z,0.00
2023-01-22T01:11:41.657Z,0.00
2023-01-22T01:12:41.682Z,0.00
2023-01-22T01:13:41.821Z,0.00
2023-01-22T01:14:41.704Z,0.00
2023-01-22T01:15:41.680Z,0.00
2023-01-22T01:16:41.706Z,0.00
2023-01-22T01:17:41.745Z,0.00
2023-01-22T01:18:41.732Z,0.00
2023-01-22T01:19:41.726Z,0.00
2023-01-22T01:20:41.711Z,0.00
2023-01-22T01:21:41.742Z,0.00
2023-01-22T01:22:42.376Z,0.00
2023-01-22T01:23:41.764Z,0.00
2023-01-22T01:24:41.786Z,0.00
2023-01-22T01:25:41.802Z,0.00
2023-01-22T01:26:41.824Z,0.00
2023-01-22T01:27:41.860Z,0.00
2023-01-22T01:28:41.876Z,0.00
2023-01-22T01:29:42.056Z,0.00
2023-01-22T01:30:41.955Z,0.00
2023-01-22T01:31:41.956Z,0.00
2023-01-22T01:32:41.911Z,0.00
2023-01-22T01:33:41.948Z,0.00
2023-01-22T01:34:41.924Z,0.00
2023-01-22T01:35:41.946Z,0.00
2023-01-22T01:36:49.816Z,0.00
2023-01-22T01:37:41.967Z,0.00
2023-01-22T01:38:41.996Z,0.00
2023-01-22T01:39:42.012Z,0.00
2023-01-22T01:40:42.045Z,0.00
2023-01-22T01:41:42.077Z,0.00
2023-01-22T01:42:42.054Z,0.00
2023-01-22T01:43:42.099Z,0.00
2023-01-22T01:44:42.066Z,0.00
2023-01-22T01:45:42.198Z,0.00
2023-01-22T01:46:42.120Z,0.00
2023-01-22T01:47:42.081Z,0.00
2023-01-22T01:48:42.119Z,0.00
2023-01-22T01:49:42.129Z,0.00
2023-01-22T01:50:42.152Z,0.00
2023-01-22T01:51:42.167Z,0.00
2023-01-22T01:52:42.176Z,0.00
2023-01-22T01:53:42.217Z,0.00
2023-01-22T01:54:42.198Z,0.00
2023-01-22T01:55:42.222Z,0.00
2023-01-22T01:56:42.251Z,0.00
2023-01-22T01:57:42.268Z,0.00
2023-01-22T01:58:42.520Z,0.00
2023-01-22T01:59:42.266Z,0.00
2023-01-22T02:00:42.356Z,0.00
2023-01-22T02:01:42.457Z,0.00
2023-01-22T02:02:42.320Z,0.00
2023-01-22T02:03:42.346Z,0.00
2023-01-22T02:04:42.323Z,0.00
2023-01-22T02:05:42.339Z,0.00
2023-01-22T02:06:42.366Z,0.00
2023-01-22T02:07:42.389Z,0.00
2023-01-22T02:08:42.414Z,0.00
2023-01-22T02:09:42.450Z,0.00
2023-01-22T02:10:42.427Z,0.00
2023-01-22T02:11:42.456Z,0.00
2023-01-22T02:12:42.468Z,0.00
2023-01-22T02:13:42.485Z,0.00
2023-01-22T02:14:42.506Z,0.00
2023-01-22T02:15:42.528Z,0.00
2023-01-22T02:16:42.591Z,0.00
2023-01-22T02:17:42.669Z,0.00
2023-01-22T02:18:42.567Z,0.00
2023-01-22T02:19:42.552Z,0.00
2023-01-22T02:20:42.529Z,0.00
2023-01-22T02:21:42.541Z,0.00
2023-01-22T02:22:42.591Z,0.00
2023-01-22T02:23:42.559Z,0.00
2023-01-22T02:24:42.592Z,0.00
2023-01-22T02:25:42.588Z,0.00
2023-01-22T02:26:42.575Z,0.00
2023-01-22T02:27:42.612Z,0.00
2023-01-22T02:28:42.588Z,0.00
2023-01-22T02:29:42.603Z,0.00
2023-01-22T02:30:42.686Z,0.00
2023-01-22T02:31:42.687Z,0.00
2023-01-22T02:32:42.608Z,0.00
2023-01-22T02:33:42.748Z,0.00
2023-01-22T02:34:42.638Z,0.00
2023-01-22T02:35:42.658Z,0.00
2023-01-22T02:36:42.674Z,0.00
2023-01-22T02:37:42.716Z,0.00
2023-01-22T02:38:42.691Z,0.00
2023-01-22T02:39:42.731Z,0.00
2023-01-22T02:40:42.742Z,0.00
2023-01-22T02:41:42.731Z,0.00
2023-01-22T02:42:42.767Z,0.00
2023-01-22T02:43:42.749Z,0.00
2023-01-22T02:44:42.792Z,0.00
2023-01-22T02:45:42.827Z,0.00
2023-01-22T02:46:42.929Z,0.00
2023-01-22T02:47:42.809Z,0.00
2023-01-22T02:48:42.799Z,0.00
2023-01-22T02:49:42.893Z,0.00
2023-01-22T02:50:43.006Z,0.00
2023-01-22T02:51:42.796Z,0.00
2023-01-22T02:52:42.830Z,0.00
2023-01-22T02:53:42.877Z,0.00
2023-01-22T02:54:42.849Z,0.00
2023-01-22T02:55:42.885Z,0.00
2023-01-22T02:56:42.899Z,0.00
2023-01-22T02:57:42.937Z,0.00
2023-01-22T02:58:42.915Z,0.00
2023-01-22T02:59:42.964Z,0.00
2023-01-22T03:00:43.001Z,0.00
2023-01-22T03:01:42.985Z,0.00
2023-01-22T03:02:43.015Z,0.00
2023-01-22T03:03:42.992Z,0.00
2023-01-22T03:04:43.007Z,0.00
2023-01-22T03:05:43.143Z,0.00
2023-01-22T03:06:43.034Z,0.00
2023-01-22T03:07:43.033Z,0.00
2023-01-22T03:08:43.011Z,0.00
2023-01-22T03:09:43.031Z,0.00
2023-01-22T03:10:43.042Z,0.00
2023-01-22T03:11:43.073Z,0.00
2023-01-22T03:12:43.131Z,0.00
2023-01-22T03:13:43.092Z,0.00
2023-01-22T03:14:43.138Z,0.00
2023-01-22T03:15:43.137Z,0.00
2023-01-22T03:16:43.200Z,0.00
2023-01-22T03:17:43.123Z,0.00
2023-01-22T03:18:43.134Z,0.00
2023-01-22T03:19:43.121Z,0.00
2023-01-22T03:20:43.100Z,0.00
2023-01-22T03:21:43.216Z,0.00
2023-01-22T03:22:43.120Z,0.00
2023-01-22T03:23:43.110Z,0.00
2023-01-22T03:24:43.087Z,0.00
2023-01-22T03:25:43.135Z,0.00
2023-01-22T03:26:43.121Z,0.00
2023-01-22T03:27:43.137Z,0.00
2023-01-22T03:28:43.147Z,0.00
2023-01-22T03:29:43.126Z,0.00
2023-01-22T03:30:43.140Z,0.00
2023-01-22T03:31:43.278Z,0.00
2023-01-22T03:32:43.198Z,0.00
2023-01-22T03:33:43.363Z,0.00
2023-01-22T03:34:43.224Z,0.00
2023-01-22T03:35:43.254Z,0.00
2023-01-22T03:36:43.263Z,0.00
2023-01-22T03:37:43.435Z,0.00
2023-01-22T03:38:43.287Z,0.00
2023-01-22T03:39:43.339Z,0.00
2023-01-22T03:40:43.323Z,0.00
2023-01-22T03:41:43.343Z,0.00
2023-01-22T03:42:43.341Z,0.00
2023-01-22T03:43:43.316Z,0.00
2023-01-22T03:44:43.357Z,0.00
2023-01-22T03:45:43.378Z,0.00
2023-01-22T03:46:43.321Z,0.00
2023-01-22T03:47:43.346Z,0.00
2023-01-22T03:48:43.379Z,0.00
2023-01-22T03:49:43.412Z,0.00
2023-01-22T03:50:43.429Z,0.00
2023-01-22T03:51:43.441Z,0.00
2023-01-22T03:52:43.440Z,0.00
2023-01-22T03:53:43.585Z,0.00
2023-01-22T03:54:43.464Z,0.00
2023-01-22T03:55:43.445Z,0.00
2023-01-22T03:56:43.505Z,0.00
2023-01-22T03:57:43.496Z,0.00
2023-01-22T03:58:43.475Z,0.00
2023-01-22T03:59:43.496Z,0.00
2023-01-22T04:00:43.530Z,0.00
2023-01-22T04:01:43.520Z,0.00
2023-01-22T04:02:43.611Z,0.00
2023-01-22T04:03:43.567Z,0.00
2023-01-22T04:04:43.581Z,0.00
2023-01-22T04:05:43.620Z,0.00
2023-01-22T04:06:43.619Z,0.00
2023-01-22T04:07:43.597Z,0.00
2023-01-22T04:08:43.612Z,0.00
2023-01-22T04:09:43.757Z,0.00
2023-01-22T04:10:43.639Z,0.00
2023-01-22T04:11:43.665Z,0.00
2023-01-22T04:12:43.691Z,0.00
2023-01-22T04:13:43.710Z,0.00
2023-01-22T04:14:43.717Z,0.00
2023-01-22T04:15:43.753Z,0.00
2023-01-22T04:16:43.844Z,0.00
2023-01-22T04:17:43.740Z,0.00
2023-01-22T04:18:43.752Z,0.00
2023-01-22T04:19:43.783Z,0.00
2023-01-22T04:20:43.772Z,0.00
2023-01-22T04:21:43.788Z,0.00
2023-01-22T04:22:43.813Z,0.00
2023-01-22T04:23:43.835Z,0.00
2023-01-22T04:24:43.870Z,0.00
2023-01-22T04:25:44.014Z,0.00
2023-01-22T04:26:43.882Z,0.00
2023-01-22T04:27:43.901Z,0.00
2023-01-22T04:28:43.916Z,0.00
2023-01-22T04:29:43.954Z,0.00
2023-01-22T04:30:44.072Z,0.00
2023-01-22T04:31:44.023Z,0.00
2023-01-22T04:32:43.951Z,0.00
2023-01-22T04:33:43.987Z,0.00
2023-01-22T04:34:43.965Z,0.00
2023-01-22T04:35:43.993Z,0.00
2023-01-22T04:36:43.968Z,0.00
2023-01-22T04:37:43.998Z,0.00
2023-01-22T04:38:44.016Z,0.00
2023-01-22T04:39:44.038Z,0.00
2023-01-22T04:40:44.080Z,0.00
2023-01-22T04:41:44.198Z,0.00
2023-01-22T04:42:44.131Z,0.00
2023-01-22T04:43:44.093Z,0.00
2023-01-22T04:44:44.109Z,0.00
2023-01-22T04:45:44.213Z,0.00
2023-01-22T04:46:44.147Z,0.00
2023-01-22T04:47:44.165Z,0.00
2023-01-22T04:48:44.185Z,0.00
2023-01-22T04:49:44.209Z,0.00
2023-01-22T04:50:45.654Z,0.00
2023-01-22T04:51:44.252Z,0.00
2023-01-22T04:52:44.265Z,0.00
2023-01-22T04:53:44.277Z,0.00
2023-01-22T04:54:44.307Z,0.00
2023-01-22T04:55:44.343Z,0.00
2023-01-22T04:56:44.318Z,0.00
2023-01-22T04:57:44.458Z,0.00
2023-01-22T04:58:44.331Z,0.00
2023-01-22T04:59:44.346Z,0.00
2023-01-22T05:00:44.385Z,0.00
2023-01-22T05:01:44.361Z,0.00
2023-01-22T05:02:44.506Z,0.00
2023-01-22T05:03:44.385Z,0.00
2023-01-22T05:04:44.634Z,0.00
2023-01-22T05:05:44.434Z,0.00
2023-01-22T05:06:44.416Z,0.00
2023-01-22T05:07:44.451Z,0.00
2023-01-22T05:08:44.467Z,0.00
2023-01-22T05:09:44.489Z,0.00
2023-01-22T05:10:44.517Z,0.00
2023-01-22T05:11:44.534Z,0.00
2023-01-22T05:12:44.548Z,0.00
2023-01-22T05:13:44.687Z,0.00
2023-01-22T05:14:44.574Z,0.00
2023-01-22T05:15:44.642Z,0.00
2023-01-22T05:16:44.620Z,0.00
2023-01-22T05:17:44.630Z,0.00
2023-01-22T05:18:44.654Z,0.00
2023-01-22T05:19:44.672Z,0.00
2023-01-22T05:20:44.717Z,0.00
2023-01-22T05:21:44.685Z,0.00
2023-01-22T05:22:44.706Z,0.00
2023-01-22T05:23:44.735Z,0.00
2023-01-22T05:24:44.748Z,0.00
2023-01-22T05:25:44.782Z,0.00
2023-01-22T05:26:44.771Z,0.00
2023-01-22T05:27:44.788Z,0.00
2023-01-22T05:28:44.821Z,0.00
2023-01-22T05:29:44.957Z,0.00
2023-01-22T05:30:45.052Z,0.00
2023-01-22T05:31:44.912Z,0.00
2023-01-22T05:32:44.842Z,0.00
2023-01-22T05:33:44.870Z,0.00
2023-01-22T05:34:44.885Z,0.00
2023-01-22T05:35:44.915Z,0.00
2023-01-22T05:36:44.931Z,0.00
2023-01-22T05:37:44.953Z,0.00
2023-01-22T05:38:44.976Z,0.00
2023-01-22T05:39:45.010Z,0.00
2023-01-22T05:40:45.035Z,0.00
2023-01-22T05:41:45.030Z,0.00
2023-01-22T05:42:45.044Z,0.00
2023-01-22T05:43:45.057Z,0.00
2023-01-22T05:44:45.078Z,0.00
2023-01-22T05:45:45.197Z,0.00
2023-01-22T05:46:45.068Z,0.00
2023-01-22T05:47:45.089Z,0.00
2023-01-22T05:48:45.117Z,0.00
2023-01-22T05:49:45.141Z,0.00
2023-01-22T05:50:45.117Z,0.00
2023-01-22T05:51:45.143Z,0.00
2023-01-22T05:52:45.169Z,0.00
2023-01-22T05:53:45.179Z,0.00
2023-01-22T05:54:45.211Z,0.00
2023-01-22T05:55:45.222Z,0.00
2023-01-22T05:56:45.240Z,0.00
2023-01-22T05:57:45.265Z,0.00
2023-01-22T05:58:45.313Z,0.00
2023-01-22T05:59:45.294Z,0.00
2023-01-22T06:00:45.315Z,0.00
2023-01-22T06:01:45.411Z,0.00
2023-01-22T06:02:45.336Z,0.00
2023-01-22T06:03:45.315Z,0.00
2023-01-22T06:04:45.287Z,0.00
2023-01-22T06:05:45.310Z,0.00
2023-01-22T06:06:45.333Z,0.00
2023-01-22T06:07:45.314Z,0.00
2023-01-22T06:08:45.328Z,0.00
2023-01-22T06:09:45.366Z,0.00
2023-01-22T06:10:45.382Z,0.00
2023-01-22T06:11:45.410Z,0.00
2023-01-22T06:12:45.434Z,0.00
2023-01-22T06:13:45.451Z,0.00
2023-01-22T06:14:45.480Z,0.00
2023-01-22T06:15:45.585Z,0.00
2023-01-22T06:16:45.515Z,0.00
2023-01-22T06:17:45.660Z,0.00
2023-01-22T06:18:45.541Z,0.00
2023-01-22T06:19:45.563Z,0.00
2023-01-22T06:20:45.581Z,0.00
2023-01-22T06:21:45.601Z,0.00
2023-01-22T06:22:45.622Z,0.00
2023-01-22T06:23:45.663Z,0.00
2023-01-22T06:24:45.648Z,0.00
2023-01-22T06:25:45.662Z,0.00
2023-01-22T06:26:45.685Z,0.00
2023-01-22T06:27:45.668Z,0.00
2023-01-22T06:28:45.660Z,0.00
2023-01-22T06:29:45.688Z,0.00
2023-01-22T06:30:45.743Z,1.00
2023-01-22T06:31:45.854Z,1.00
2023-01-22T06:32:45.745Z,0.00
2023-01-22T06:33:45.899Z,1.00
2023-01-22T06:34:45.778Z,1.00
2023-01-22T06:35:45.806Z,1.00
2023-01-22T06:36:45.826Z,1.00
2023-01-22T06:37:45.851Z,2.00
2023-01-22T06:38:45.893Z,1.00
2023-01-22T06:39:45.875Z,2.00
2023-01-22T06:40:45.905Z,2.00
2023-01-22T06:41:45.922Z,3.00
2023-01-22T06:42:45.954Z,3.00
2023-01-22T06:43:45.970Z,4.00
2023-01-22T06:44:45.982Z,5.00
2023-01-22T06:45:46.010Z,5.00
2023-01-22T06:46:46.166Z,7.00
2023-01-22T06:47:46.037Z,7.00
2023-01-22T06:48:47.538Z,9.00
2023-01-22T06:49:46.192Z,11.00
2023-01-22T06:50:46.076Z,12.00
2023-01-22T06:51:46.111Z,14.00
2023-01-22T06:52:46.128Z,16.00
2023-01-22T06:53:46.216Z,19.00
2023-01-22T06:54:46.151Z,22.00
2023-01-22T06:55:46.179Z,25.00
2023-01-22T06:56:46.198Z,28.00
2023-01-22T06:57:46.224Z,32.00
2023-01-22T06:58:46.250Z,36.00
2023-01-22T06:59:46.261Z,41.00
2023-01-22T07:00:46.287Z,45.00
2023-01-22T07:01:46.314Z,49.00
2023-01-22T07:02:46.322Z,55.00
2023-01-22T07:03:46.535Z,59.00
2023-01-22T07:04:46.350Z,65.00
2023-01-22T07:05:46.499Z,71.00
2023-01-22T07:06:46.385Z,76.00
2023-01-22T07:07:46.361Z,83.00
2023-01-22T07:08:46.385Z,90.00
2023-01-22T07:09:46.363Z,98.00
2023-01-22T07:10:46.381Z,108.00
2023-01-22T07:11:46.394Z,118.00
2023-01-22T07:12:46.419Z,130.00
2023-01-22T07:13:46.421Z,143.00
2023-01-22T07:14:46.411Z,156.00
2023-01-22T07:15:46.472Z,168.00
2023-01-22T07:16:46.429Z,182.00
2023-01-22T07:17:48.206Z,197.00
2023-01-22T07:18:46.484Z,213.00
2023-01-22T07:19:46.473Z,229.00
2023-01-22T07:20:46.492Z,247.00
2023-01-22T07:21:46.606Z,264.00
2023-01-22T07:22:46.492Z,277.00
2023-01-22T07:23:46.523Z,288.00
2023-01-22T07:24:46.547Z,300.00
2023-01-22T07:25:46.529Z,317.00
2023-01-22T07:26:46.560Z,334.00
2023-01-22T07:27:46.592Z,349.00
2023-01-22T07:28:46.640Z,361.00
2023-01-22T07:29:46.654Z,368.00
2023-01-22T07:30:46.631Z,379.00
2023-01-22T07:31:49.508Z,382.00
2023-01-22T07:32:46.659Z,386.00
2023-01-22T07:33:46.649Z,396.00
2023-01-22T07:34:46.675Z,396.00
2023-01-22T07:35:46.698Z,392.00
2023-01-22T07:36:46.720Z,386.00
2023-01-22T07:37:46.868Z,380.00
2023-01-22T07:38:46.799Z,374.00
2023-01-22T07:39:46.785Z,363.00
2023-01-22T07:40:46.821Z,359.00
2023-01-22T07:41:46.842Z,338.00
2023-01-22T07:42:46.831Z,337.00
2023-01-22T07:43:46.866Z,335.00
2023-01-22T07:44:46.844Z,328.00
2023-01-22T07:45:46.831Z,336.00
2023-01-22T07:46:46.901Z,336.00
2023-01-22T07:47:46.837Z,337.00
2023-01-22T07:48:46.848Z,333.00
2023-01-22T07:49:46.828Z,334.00
2023-01-22T07:50:46.920Z,339.00
2023-01-22T07:51:46.822Z,341.00
2023-01-22T07:52:46.853Z,345.00
2023-01-22T07:53:46.973Z,349.00
2023-01-22T07:54:46.862Z,354.00
2023-01-22T07:55:46.934Z,354.00
2023-01-22T07:56:46.895Z,376.00
2023-01-22T07:57:46.873Z,392.00
2023-01-22T07:58:46.923Z,395.00
2023-01-22T07:59:46.915Z,412.00
2023-01-22T08:00:46.960Z,419.00
2023-01-22T08:01:46.971Z,425.00
2023-01-22T08:02:46.935Z,431.00
2023-01-22T08:03:46.930Z,448.00
2023-01-22T08:04:46.919Z,464.00
2023-01-22T08:05:46.910Z,474.00
2023-01-22T08:06:46.893Z,493.00
2023-01-22T08:07:46.927Z,527.00
2023-01-22T08:08:46.929Z,571.00
2023-01-22T08:09:47.041Z,592.00
2023-01-22T08:10:46.937Z,622.00
2023-01-22T08:11:46.920Z,645.00
2023-01-22T08:12:46.949Z,654.00
2023-01-22T08:13:46.946Z,647.00
2023-01-22T08:14:46.926Z,616.00
2023-01-22T08:15:46.956Z,643.00
2023-01-22T08:16:47.020Z,668.00
2023-01-22T08:17:46.997Z,679.00
2023-01-22T08:18:46.986Z,686.00
2023-01-22T08:19:46.977Z,701.00
2023-01-22T08:20:46.964Z,721.00
2023-01-22T08:21:46.949Z,747.00
2023-01-22T08:22:47.000Z,772.00
2023-01-22T08:23:49.151Z,781.00
2023-01-22T08:24:46.978Z,803.00
2023-01-22T08:25:47.081Z,823.00
2023-01-22T08:26:46.996Z,851.00
2023-01-22T08:27:46.994Z,851.00
2023-01-22T08:28:46.988Z,869.00
2023-01-22T08:29:46.969Z,872.00
2023-01-22T08:30:47.219Z,893.00
2023-01-22T08:31:47.060Z,906.00
2023-01-22T08:32:46.945Z,924.00
2023-01-22T08:33:46.964Z,978.00
2023-01-22T08:34:47.013Z,1068.00
2023-01-22T08:35:46.994Z,1167.00
2023-01-22T08:36:46.983Z,1218.00
2023-01-22T08:37:47.028Z,1311.00
2023-01-22T08:38:47.014Z,1412.00
2023-01-22T08:39:47.011Z,1482.00
2023-01-22T08:40:47.011Z,1548.00
2023-01-22T08:41:47.118Z,1625.00
2023-01-22T08:42:47.011Z,1701.00
2023-01-22T08:43:47.037Z,1721.00
2023-01-22T08:44:47.079Z,1699.00
2023-01-22T08:45:47.093Z,1723.00
2023-01-22T08:46:47.095Z,1780.00
2023-01-22T08:47:47.136Z,1757.00
2023-01-22T08:48:47.122Z,1717.00
2023-01-22T08:49:47.150Z,1712.00
2023-01-22T08:50:47.206Z,1777.00
2023-01-22T08:51:47.149Z,1837.00
2023-01-22T08:52:47.144Z,1869.00
2023-01-22T08:53:47.132Z,1927.00
2023-01-22T08:54:47.133Z,1996.00
2023-01-22T08:55:47.110Z,2058.00
2023-01-22T08:56:47.143Z,2079.00
2023-01-22T08:57:47.270Z,2058.00
2023-01-22T08:58:47.150Z,2046.00
2023-01-22T09:00:00.504Z,2077.00
2023-01-22T09:00:47.195Z,2137.00
2023-01-22T09:01:47.222Z,2217.00
2023-01-22T09:02:47.175Z,2276.00
2023-01-22T09:03:47.188Z,2301.00
2023-01-22T09:04:47.161Z,2281.00
2023-01-22T09:05:47.192Z,2329.00
2023-01-22T09:06:47.178Z,2401.00
2023-01-22T09:07:47.212Z,2462.00
2023-01-22T09:08:47.219Z,2417.00
2023-01-22T09:09:47.209Z,2433.00
2023-01-22T09:10:47.254Z,2449.00
2023-01-22T09:11:47.234Z,2511.00
2023-01-22T09:12:47.262Z,2606.00
2023-01-22T09:13:47.401Z,2606.00
2023-01-22T09:14:47.297Z,2560.00
2023-01-22T09:15:47.285Z,2485.00
2023-01-22T09:16:47.399Z,2510.00
2023-01-22T09:17:47.313Z,2551.00
2023-01-22T09:18:47.348Z,2544.00
2023-01-22T09:19:47.328Z,2472.00
2023-01-22T09:20:47.390Z,2468.00
2023-01-22T09:21:47.381Z,2491.00
2023-01-22T09:22:47.358Z,2448.00
2023-01-22T09:23:47.376Z,2334.00
2023-01-22T09:24:47.362Z,2388.00
2023-01-22T09:25:47.384Z,2437.00
2023-01-22T09:26:47.407Z,2460.00
2023-01-22T09:27:47.438Z,2497.00
2023-01-22T09:28:47.491Z,2506.00
2023-01-22T09:29:47.585Z,2606.00
2023-01-22T09:30:47.537Z,2683.00
2023-01-22T09:31:47.521Z,2763.00
2023-01-22T09:32:47.519Z,2805.00
2023-01-22T09:33:47.525Z,2847.00
2023-01-22T09:34:47.526Z,2890.00
2023-01-22T09:35:47.515Z,2943.00
2023-01-22T09:36:47.536Z,2977.00
2023-01-22T09:37:47.539Z,2972.00
2023-01-22T09:38:47.533Z,2901.00
2023-01-22T09:39:47.522Z,2867.00
2023-01-22T09:40:47.500Z,2850.00
2023-01-22T09:41:47.500Z,2758.00
2023-01-22T09:42:47.488Z,2723.00
2023-01-22T09:43:47.532Z,2691.00
2023-01-22T09:44:47.515Z,2626.00
2023-01-22T09:45:47.676Z,2521.00
2023-01-22T09:46:47.511Z,2411.00
2023-01-22T09:47:47.599Z,2346.00
2023-01-22T09:48:47.506Z,2342.00
2023-01-22T09:49:47.489Z,2397.00
2023-01-22T09:50:47.577Z,2384.00
2023-01-22T09:51:47.544Z,2292.00
2023-01-22T09:52:47.575Z,2208.00
2023-01-22T09:53:47.604Z,2152.00
2023-01-22T09:54:47.576Z,2073.00
2023-01-22T09:55:47.573Z,2030.00
2023-01-22T09:56:47.548Z,1921.00
2023-01-22T09:57:47.580Z,1748.00
2023-01-22T09:58:47.585Z,1562.00
2023-01-22T09:59:47.561Z,1364.00
2023-01-22T10:00:47.725Z,1297.00
2023-01-22T10:01:47.684Z,1262.00
2023-01-22T10:02:47.616Z,1244.00
2023-01-22T10:03:47.592Z,1300.00
2023-01-22T10:04:47.569Z,1349.00
2023-01-22T10:05:47.557Z,1393.00
2023-01-22T10:06:47.579Z,1440.00
2023-01-22T10:07:47.612Z,1495.00
2023-01-22T10:08:47.655Z,1563.00
2023-01-22T10:09:47.630Z,1662.00
2023-01-22T10:10:47.616Z,1782.00
2023-01-22T10:11:47.622Z,2011.00
2023-01-22T10:12:47.597Z,2301.00
2023-01-22T10:13:47.588Z,2612.00
2023-01-22T10:14:47.623Z,2935.00
2023-01-22T10:15:47.603Z,3234.00
2023-01-22T10:16:47.670Z,3431.00
2023-01-22T10:17:47.735Z,3552.00
2023-01-22T10:18:47.629Z,3514.00
2023-01-22T10:19:47.619Z,3394.00
2023-01-22T10:20:47.647Z,3267.00
2023-01-22T10:21:47.712Z,3181.00
2023-01-22T10:22:47.693Z,3176.00
2023-01-22T10:23:47.680Z,3194.00
2023-01-22T10:24:47.713Z,3166.00
2023-01-22T10:25:47.757Z,3163.00
2023-01-22T10:26:47.746Z,3248.00
2023-01-22T10:27:47.770Z,3411.00
2023-01-22T10:28:47.792Z,3624.00
2023-01-22T10:29:47.838Z,3876.00
2023-01-22T10:30:47.919Z,4106.00
2023-01-22T10:31:47.949Z,4259.00
2023-01-22T10:32:47.829Z,4326.00
2023-01-22T10:33:47.934Z,4364.00
2023-01-22T10:34:47.830Z,4321.00
2023-01-22T10:35:47.816Z,4263.00
2023-01-22T10:36:47.801Z,4204.00
2023-01-22T10:37:47.833Z,4071.00
2023-01-22T10:38:47.856Z,3970.00
2023-01-22T10:39:47.905Z,3949.00
2023-01-22T10:40:47.875Z,3905.00
2023-01-22T10:41:47.905Z,3802.00
2023-01-22T10:42:47.886Z,3637.00
2023-01-22T10:43:47.874Z,3485.00
2023-01-22T10:44:47.920Z,3402.00
2023-01-22T10:45:47.927Z,3363.00
2023-01-22T10:46:47.932Z,3314.00
2023-01-22T10:47:47.965Z,3240.00
2023-01-22T10:48:47.986Z,3184.00
2023-01-22T10:49:48.147Z,3146.00
2023-01-22T10:50:48.076Z,3103.00
2023-01-22T10:51:48.038Z,3075.00
2023-01-22T10:52:48.044Z,3042.00
2023-01-22T10:53:48.021Z,3024.00
2023-01-22T10:54:48.017Z,2962.00
2023-01-22T10:55:48.035Z,2884.00
2023-01-22T10:56:48.043Z,2873.00
2023-01-22T10:57:48.050Z,2897.00
2023-01-22T10:58:48.061Z,2902.00
2023-01-22T10:59:48.089Z,2898.00
2023-01-22T11:00:52.309Z,2903.00
2023-01-22T11:01:48.123Z,2965.00
2023-01-22T11:02:48.229Z,3060.00
2023-01-22T11:03:48.100Z,3214.00
2023-01-22T11:04:48.091Z,3352.00
2023-01-22T11:05:48.221Z,3355.00
2023-01-22T11:06:48.112Z,3144.00
2023-01-22T11:07:48.143Z,2813.00
2023-01-22T11:08:48.188Z,2400.00
2023-01-22T11:09:48.173Z,2100.00
2023-01-22T11:10:48.209Z,1912.00
2023-01-22T11:11:48.223Z,1827.00
2023-01-22T11:12:48.205Z,1853.00
2023-01-22T11:13:48.236Z,1987.00
2023-01-22T11:14:48.236Z,2241.00
2023-01-22T11:15:48.313Z,2510.00
2023-01-22T11:16:48.266Z,2785.00
2023-01-22T11:17:48.250Z,2978.00
2023-01-22T11:18:48.244Z,3075.00
2023-01-22T11:19:48.270Z,3163.00
2023-01-22T11:20:48.320Z,3224.00
2023-01-22T11:21:48.432Z,3262.00
2023-01-22T11:22:48.318Z,3276.00
2023-01-22T11:23:48.344Z,3278.00
2023-01-22T11:24:48.470Z,3281.00
2023-01-22T11:25:48.325Z,3274.00
2023-01-22T11:26:48.358Z,3263.00
2023-01-22T11:27:48.343Z,3263.00
2023-01-22T11:28:48.339Z,3253.00
2023-01-22T11:29:48.320Z,3240.00
2023-01-22T11:30:48.450Z,3199.00
2023-01-22T11:31:48.418Z,3117.00
2023-01-22T11:32:48.369Z,2994.00
2023-01-22T11:33:48.383Z,2894.00
2023-01-22T11:34:48.417Z,2854.00
2023-01-22T11:35:48.440Z,2817.00
2023-01-22T11:36:48.479Z,2783.00
2023-01-22T11:37:48.625Z,2781.00
2023-01-22T11:38:48.510Z,2755.00
2023-01-22T11:39:48.495Z,2707.00
2023-01-22T11:40:48.529Z,2661.00
2023-01-22T11:41:48.761Z,2664.00
2023-01-22T11:42:48.514Z,2730.00
2023-01-22T11:43:48.542Z,2805.00
2023-01-22T11:44:48.580Z,2815.00
2023-01-22T11:45:48.629Z,2753.00
2023-01-22T11:46:48.602Z,2660.00
2023-01-22T11:47:48.586Z,2638.00
2023-01-22T11:48:48.606Z,2646.00
2023-01-22T11:49:48.630Z,2479.00
2023-01-22T11:50:48.722Z,2395.00
2023-01-22T11:51:48.648Z,2347.00
2023-01-22T11:52:48.678Z,2326.00
2023-01-22T11:53:48.789Z,2273.00
2023-01-22T11:54:48.681Z,2249.00
2023-01-22T11:55:48.684Z,2326.00
2023-01-22T11:56:48.667Z,2493.00
2023-01-22T11:57:48.671Z,2580.00
2023-01-22T11:58:48.688Z,2650.00
2023-01-22T11:59:48.705Z,2727.00
2023-01-22T12:00:48.679Z,2744.00
2023-01-22T12:01:48.730Z,2704.00
2023-01-22T12:02:48.744Z,2678.00
2023-01-22T12:03:48.772Z,2636.00
2023-01-22T12:04:48.721Z,2599.00
2023-01-22T12:05:48.757Z,2618.00
2023-01-22T12:06:49.015Z,2649.00
2023-01-22T12:07:48.767Z,2683.00
2023-01-22T12:08:48.790Z,2697.00
2023-01-22T12:09:48.933Z,2665.00
2023-01-22T12:10:48.826Z,2651.00
2023-01-22T12:11:48.869Z,2617.00
2023-01-22T12:12:48.851Z,2593.00
2023-01-22T12:13:49.068Z,2581.00
2023-01-22T12:14:48.855Z,2576.00
2023-01-22T12:15:48.952Z,2610.00
2023-01-22T12:16:48.865Z,2630.00
2023-01-22T12:17:48.888Z,2635.00
2023-01-22T12:18:48.925Z,2620.00
2023-01-22T12:19:48.939Z,2596.00
2023-01-22T12:20:48.925Z,2596.00
2023-01-22T12:21:48.960Z,2601.00
2023-01-22T12:22:48.938Z,2616.00
2023-01-22T12:23:48.933Z,2635.00
2023-01-22T12:24:48.918Z,2641.00
2023-01-22T12:25:54.842Z,2626.00
2023-01-22T12:26:49.068Z,2609.00
2023-01-22T12:27:48.959Z,2617.00
2023-01-22T12:28:48.947Z,2612.00
2023-01-22T12:29:48.992Z,2595.00
2023-01-22T12:30:49.278Z,2595.00
2023-01-22T12:31:49.042Z,2580.00
2023-01-22T12:32:48.994Z,2547.00
2023-01-22T12:33:48.973Z,2524.00
2023-01-22T12:34:49.016Z,2514.00
2023-01-22T12:35:49.007Z,2526.00
2023-01-22T12:36:49.036Z,2527.00
2023-01-22T12:37:49.037Z,2516.00
2023-01-22T12:38:49.065Z,2495.00
2023-01-22T12:39:49.058Z,2498.00
2023-01-22T12:40:49.090Z,2479.00
2023-01-22T12:41:49.073Z,2433.00
2023-01-22T12:42:49.239Z,2383.00
2023-01-22T12:43:49.110Z,2341.00
2023-01-22T12:44:49.095Z,2343.00
2023-01-22T12:45:49.137Z,2379.00
2023-01-22T12:46:49.214Z,2397.00